Погода Кеймадусна 2 недели

Рио-де-Жанейро, Бразилия

24 июля-05 августа
  • 24июля
    Сегодня
    +14°
    +27°
    Практически безоблачно
    ВремяПогодаТемператураВлажностьДавлениеВетер, м/сВероятность осадков
    00:00Практически безоблачно+15°C93 %769 мм0.4 м/с5 %
    03:00Облачно с прояснениями+15°C93 %768 мм0.7 м/с5 %
    06:00Небольшая облачность+15°C91 %768 мм0.8 м/с5 %
    09:00Ясно и безоблачно+20°C73 %769 мм0.6 м/с5 %
    12:00Ясно и безоблачно+26°C51 %768 мм0.9 м/с5 %
    15:00Практически безоблачно+26°C42 %767 мм2.6 м/с5 %
    18:00Ясно и безоблачно+20°C76 %767 мм2.4 м/с5 %
    21:00Ясно и безоблачно+18°C91 %768 мм1.3 м/с5 %
  • 25июля
    Четверг
    +16°
    +29°
    Ясно и безоблачно
    ВремяПогодаТемператураВлажностьДавлениеВетер, м/сВероятность осадков
    00:00Ясно и безоблачно+16°C91 %767 мм1.2 м/с5 %
    03:00Практически безоблачно+14°C89 %766 мм1.2 м/с5 %
    06:00Практически безоблачно+15°C89 %766 мм0.5 м/с5 %
    09:00Ясно и безоблачно+22°C70 %767 мм0.9 м/с5 %
    12:00Ясно и безоблачно+27°C49 %766 мм2.5 м/с5 %
    15:00Ясно и безоблачно+28°C41 %763 мм1.6 м/с5 %
    18:00Ясно и безоблачно+21°C73 %764 мм2.3 м/с5 %
    21:00Ясно и безоблачно+19°C75 %764 мм0.7 м/с5 %
  • 26июля
    Пятница
    +16°
    +31°
    Ясно и безоблачно
    ВремяПогодаТемператураВлажностьДавлениеВетер, м/сВероятность осадков
    00:00Ясно и безоблачно+18°C75 %764 мм1.0 м/с5 %
    03:00Ясно и безоблачно+18°C74 %763 мм1.2 м/с5 %
    06:00Ясно и безоблачно+17°C78 %764 мм1.5 м/с5 %
    09:00Ясно и безоблачно+23°C61 %765 мм1.2 м/с5 %
    12:00Ясно и безоблачно+29°C39 %764 мм2.3 м/с5 %
    15:00Ясно и безоблачно+29°C35 %762 мм1.0 м/с5 %
    18:00Небольшая облачность+22°C65 %763 мм1.2 м/с5 %
    21:00Облачно с прояснениями+20°C78 %765 мм1.2 м/с5 %
  • 27июля
    Суббота
    +16°
    +31°
    Небольшая облачность
    ВремяПогодаТемператураВлажностьДавлениеВетер, м/сВероятность осадков
    00:00Практически безоблачно+18°C80 %765 мм1.1 м/с5 %
    03:00Практически безоблачно+17°C80 %764 мм1.2 м/с5 %
    06:00Облачно с прояснениями+17°C76 %764 мм1.1 м/с5 %
    09:00Облачно с прояснениями+23°C58 %765 мм0.4 м/с5 %
    12:00Облачно с прояснениями+29°C40 %765 мм1.0 м/с5 %
    15:00Небольшая облачность+30°C39 %763 мм1.8 м/с5 %
    18:00Ясно и безоблачно+23°C66 %765 мм0.6 м/с5 %
    21:00Ясно и безоблачно+20°C84 %766 мм1.0 м/с5 %
Мы используем cookies
Соглашаюсь